sensor_id;sensor_type;location;lat;lon;timestamp;P1;durP1;ratioP1;P2;durP2;ratioP2
77573;SDS011;66710;48.868;9.080;2024-01-11T00:00:17;37.67;;;14.30;;
77573;SDS011;66710;48.868;9.080;2024-01-11T00:02:44;33.80;;;15.00;;
77573;SDS011;66710;48.868;9.080;2024-01-11T00:05:09;38.13;;;15.60;;
77573;SDS011;66710;48.868;9.080;2024-01-11T00:07:35;36.27;;;15.53;;
77573;SDS011;66710;48.868;9.080;2024-01-11T00:10:01;40.17;;;15.83;;
77573;SDS011;66710;48.868;9.080;2024-01-11T00:12:28;41.17;;;15.37;;
77573;SDS011;66710;48.868;9.080;2024-01-11T00:14:53;38.57;;;17.37;;
77573;SDS011;66710;48.868;9.080;2024-01-11T00:17:18;38.30;;;16.17;;
77573;SDS011;66710;48.868;9.080;2024-01-11T00:19:44;42.47;;;17.23;;
77573;SDS011;66710;48.868;9.080;2024-01-11T00:22:09;38.33;;;15.23;;
77573;SDS011;66710;48.868;9.080;2024-01-11T00:24:34;36.57;;;16.37;;
77573;SDS011;66710;48.868;9.080;2024-01-11T00:27:00;40.60;;;16.00;;
77573;SDS011;66710;48.868;9.080;2024-01-11T00:29:25;38.93;;;15.03;;
77573;SDS011;66710;48.868;9.080;2024-01-11T00:31:50;36.77;;;15.07;;
77573;SDS011;66710;48.868;9.080;2024-01-11T00:34:15;35.30;;;14.57;;
77573;SDS011;66710;48.868;9.080;2024-01-11T00:36:41;32.87;;;15.07;;
77573;SDS011;66710;48.868;9.080;2024-01-11T00:39:06;33.43;;;15.50;;
77573;SDS011;66710;48.868;9.080;2024-01-11T00:41:31;43.63;;;16.63;;
77573;SDS011;66710;48.868;9.080;2024-01-11T00:43:56;35.57;;;15.00;;
77573;SDS011;66710;48.868;9.080;2024-01-11T00:46:22;29.40;;;14.33;;
77573;SDS011;66710;48.868;9.080;2024-01-11T00:48:47;36.40;;;15.47;;
77573;SDS011;66710;48.868;9.080;2024-01-11T00:51:12;33.93;;;15.67;;
77573;SDS011;66710;48.868;9.080;2024-01-11T00:53:38;36.20;;;16.07;;
77573;SDS011;66710;48.868;9.080;2024-01-11T00:56:03;39.73;;;16.17;;
77573;SDS011;66710;48.868;9.080;2024-01-11T00:58:29;35.93;;;16.73;;
77573;SDS011;66710;48.868;9.080;2024-01-11T01:00:54;36.10;;;15.73;;
77573;SDS011;66710;48.868;9.080;2024-01-11T01:03:20;39.37;;;15.80;;
77573;SDS011;66710;48.868;9.080;2024-01-11T01:05:46;35.00;;;14.27;;
77573;SDS011;66710;48.868;9.080;2024-01-11T01:08:12;35.23;;;15.07;;
77573;SDS011;66710;48.868;9.080;2024-01-11T01:10:37;32.77;;;15.50;;
77573;SDS011;66710;48.868;9.080;2024-01-11T01:13:02;34.33;;;16.17;;
77573;SDS011;66710;48.868;9.080;2024-01-11T01:15:28;39.17;;;16.17;;
77573;SDS011;66710;48.868;9.080;2024-01-11T01:17:53;39.00;;;16.10;;
77573;SDS011;66710;48.868;9.080;2024-01-11T01:20:18;33.73;;;15.00;;
77573;SDS011;66710;48.868;9.080;2024-01-11T01:22:44;37.40;;;16.60;;
77573;SDS011;66710;48.868;9.080;2024-01-11T01:25:09;32.90;;;14.83;;
77573;SDS011;66710;48.868;9.080;2024-01-11T01:27:34;39.53;;;14.93;;
77573;SDS011;66710;48.868;9.080;2024-01-11T01:29:59;38.43;;;15.13;;
77573;SDS011;66710;48.868;9.080;2024-01-11T01:32:25;40.63;;;16.03;;
77573;SDS011;66710;48.868;9.080;2024-01-11T01:34:50;39.40;;;15.53;;
77573;SDS011;66710;48.868;9.080;2024-01-11T01:37:15;39.17;;;15.13;;
77573;SDS011;66710;48.868;9.080;2024-01-11T01:39:40;34.73;;;14.63;;
77573;SDS011;66710;48.868;9.080;2024-01-11T01:42:06;41.47;;;16.53;;
77573;SDS011;66710;48.868;9.080;2024-01-11T01:44:32;39.70;;;16.13;;
77573;SDS011;66710;48.868;9.080;2024-01-11T01:46:57;35.60;;;16.17;;
77573;SDS011;66710;48.868;9.080;2024-01-11T01:49:23;38.90;;;16.47;;
77573;SDS011;66710;48.868;9.080;2024-01-11T01:51:49;43.37;;;17.13;;
77573;SDS011;66710;48.868;9.080;2024-01-11T01:54:16;35.30;;;16.33;;
77573;SDS011;66710;48.868;9.080;2024-01-11T01:56:43;36.90;;;15.90;;
77573;SDS011;66710;48.868;9.080;2024-01-11T01:59:08;38.63;;;16.70;;
77573;SDS011;66710;48.868;9.080;2024-01-11T02:01:35;38.03;;;15.50;;
77573;SDS011;66710;48.868;9.080;2024-01-11T02:04:01;33.57;;;14.83;;
77573;SDS011;66710;48.868;9.080;2024-01-11T02:06:26;40.30;;;17.17;;
77573;SDS011;66710;48.868;9.080;2024-01-11T02:08:55;35.23;;;15.67;;
77573;SDS011;66710;48.868;9.080;2024-01-11T02:11:21;34.83;;;13.90;;
77573;SDS011;66710;48.868;9.080;2024-01-11T02:13:48;36.47;;;13.77;;
77573;SDS011;66710;48.868;9.080;2024-01-11T02:16:14;30.70;;;13.63;;
77573;SDS011;66710;48.868;9.080;2024-01-11T02:18:40;36.63;;;15.73;;
77573;SDS011;66710;48.868;9.080;2024-01-11T02:21:06;36.00;;;15.30;;
77573;SDS011;66710;48.868;9.080;2024-01-11T02:23:34;39.60;;;15.97;;
77573;SDS011;66710;48.868;9.080;2024-01-11T02:26:05;35.70;;;15.90;;
77573;SDS011;66710;48.868;9.080;2024-01-11T02:28:30;38.03;;;16.03;;
77573;SDS011;66710;48.868;9.080;2024-01-11T02:30:55;37.10;;;16.00;;
77573;SDS011;66710;48.868;9.080;2024-01-11T02:33:20;41.73;;;15.47;;
77573;SDS011;66710;48.868;9.080;2024-01-11T02:35:46;36.00;;;15.80;;
77573;SDS011;66710;48.868;9.080;2024-01-11T02:38:11;32.93;;;13.97;;
77573;SDS011;66710;48.868;9.080;2024-01-11T02:40:37;36.93;;;15.53;;
77573;SDS011;66710;48.868;9.080;2024-01-11T02:43:07;39.77;;;16.10;;
77573;SDS011;66710;48.868;9.080;2024-01-11T02:45:33;35.43;;;15.57;;
77573;SDS011;66710;48.868;9.080;2024-01-11T02:47:58;34.90;;;14.40;;
77573;SDS011;66710;48.868;9.080;2024-01-11T02:50:24;35.23;;;15.67;;
77573;SDS011;66710;48.868;9.080;2024-01-11T02:52:49;35.00;;;15.73;;
77573;SDS011;66710;48.868;9.080;2024-01-11T02:55:14;41.10;;;16.23;;
77573;SDS011;66710;48.868;9.080;2024-01-11T02:57:39;36.33;;;15.70;;
77573;SDS011;66710;48.868;9.080;2024-01-11T03:00:05;34.87;;;15.37;;
77573;SDS011;66710;48.868;9.080;2024-01-11T03:02:31;34.17;;;13.77;;
77573;SDS011;66710;48.868;9.080;2024-01-11T03:04:56;38.67;;;17.20;;
77573;SDS011;66710;48.868;9.080;2024-01-11T03:07:22;35.63;;;14.93;;
77573;SDS011;66710;48.868;9.080;2024-01-11T03:09:47;38.10;;;15.63;;
77573;SDS011;66710;48.868;9.080;2024-01-11T03:12:12;37.07;;;15.77;;
77573;SDS011;66710;48.868;9.080;2024-01-11T03:14:37;36.20;;;15.43;;
77573;SDS011;66710;48.868;9.080;2024-01-11T03:17:03;34.37;;;15.27;;
77573;SDS011;66710;48.868;9.080;2024-01-11T03:19:29;34.57;;;14.47;;
77573;SDS011;66710;48.868;9.080;2024-01-11T03:21:54;40.53;;;15.90;;
77573;SDS011;66710;48.868;9.080;2024-01-11T03:24:20;36.80;;;14.03;;
77573;SDS011;66710;48.868;9.080;2024-01-11T03:26:45;36.03;;;14.73;;
77573;SDS011;66710;48.868;9.080;2024-01-11T03:29:12;40.33;;;16.20;;
77573;SDS011;66710;48.868;9.080;2024-01-11T03:31:37;36.90;;;15.63;;
77573;SDS011;66710;48.868;9.080;2024-01-11T03:34:06;28.47;;;12.90;;
77573;SDS011;66710;48.868;9.080;2024-01-11T03:36:31;32.07;;;13.73;;
77573;SDS011;66710;48.868;9.080;2024-01-11T03:38:56;31.60;;;14.07;;
77573;SDS011;66710;48.868;9.080;2024-01-11T03:41:22;30.17;;;13.50;;
77573;SDS011;66710;48.868;9.080;2024-01-11T03:43:47;34.43;;;14.83;;
77573;SDS011;66710;48.868;9.080;2024-01-11T03:46:12;38.03;;;15.53;;
77573;SDS011;66710;48.868;9.080;2024-01-11T03:48:37;32.57;;;14.47;;
77573;SDS011;66710;48.868;9.080;2024-01-11T03:51:03;36.57;;;15.30;;
77573;SDS011;66710;48.868;9.080;2024-01-11T03:53:28;34.70;;;15.80;;
77573;SDS011;66710;48.868;9.080;2024-01-11T03:55:54;36.77;;;15.63;;
77573;SDS011;66710;48.868;9.080;2024-01-11T03:58:19;35.63;;;14.90;;
77573;SDS011;66710;48.868;9.080;2024-01-11T04:00:44;36.50;;;15.60;;
77573;SDS011;66710;48.868;9.080;2024-01-11T04:03:09;35.93;;;14.67;;
77573;SDS011;66710;48.868;9.080;2024-01-11T04:05:35;34.07;;;14.73;;
77573;SDS011;66710;48.868;9.080;2024-01-11T04:08:03;28.67;;;14.03;;
77573;SDS011;66710;48.868;9.080;2024-01-11T04:10:29;38.30;;;14.77;;
77573;SDS011;66710;48.868;9.080;2024-01-11T04:12:54;34.40;;;15.43;;
77573;SDS011;66710;48.868;9.080;2024-01-11T04:15:20;40.57;;;17.37;;
77573;SDS011;66710;48.868;9.080;2024-01-11T04:17:45;38.10;;;15.57;;
77573;SDS011;66710;48.868;9.080;2024-01-11T04:20:10;35.60;;;15.27;;
77573;SDS011;66710;48.868;9.080;2024-01-11T04:22:36;36.50;;;15.13;;
77573;SDS011;66710;48.868;9.080;2024-01-11T04:25:01;38.40;;;16.53;;
77573;SDS011;66710;48.868;9.080;2024-01-11T04:27:26;36.83;;;15.77;;
77573;SDS011;66710;48.868;9.080;2024-01-11T04:29:52;34.30;;;13.43;;
77573;SDS011;66710;48.868;9.080;2024-01-11T04:32:17;41.60;;;17.17;;
77573;SDS011;66710;48.868;9.080;2024-01-11T04:34:42;39.60;;;15.93;;
77573;SDS011;66710;48.868;9.080;2024-01-11T04:37:08;36.07;;;16.23;;
77573;SDS011;66710;48.868;9.080;2024-01-11T04:39:33;34.90;;;14.73;;
77573;SDS011;66710;48.868;9.080;2024-01-11T04:41:58;29.93;;;13.07;;
77573;SDS011;66710;48.868;9.080;2024-01-11T04:44:25;36.57;;;14.80;;
77573;SDS011;66710;48.868;9.080;2024-01-11T04:46:50;36.03;;;15.40;;
77573;SDS011;66710;48.868;9.080;2024-01-11T04:49:16;37.43;;;15.40;;
77573;SDS011;66710;48.868;9.080;2024-01-11T04:51:41;34.20;;;15.43;;
77573;SDS011;66710;48.868;9.080;2024-01-11T04:54:06;36.53;;;14.23;;
77573;SDS011;66710;48.868;9.080;2024-01-11T04:56:31;30.00;;;13.07;;
77573;SDS011;66710;48.868;9.080;2024-01-11T04:58:57;29.27;;;13.90;;
77573;SDS011;66710;48.868;9.080;2024-01-11T05:01:23;34.37;;;13.90;;
77573;SDS011;66710;48.868;9.080;2024-01-11T05:03:48;38.87;;;15.63;;
77573;SDS011;66710;48.868;9.080;2024-01-11T05:06:17;39.60;;;16.07;;
77573;SDS011;66710;48.868;9.080;2024-01-11T05:08:43;43.90;;;17.03;;
77573;SDS011;66710;48.868;9.080;2024-01-11T05:11:19;37.27;;;14.53;;
77573;SDS011;66710;48.868;9.080;2024-01-11T05:13:46;35.70;;;15.63;;
77573;SDS011;66710;48.868;9.080;2024-01-11T05:16:17;42.00;;;17.70;;
77573;SDS011;66710;48.868;9.080;2024-01-11T05:18:45;35.53;;;16.30;;
77573;SDS011;66710;48.868;9.080;2024-01-11T05:21:11;32.17;;;15.30;;
77573;SDS011;66710;48.868;9.080;2024-01-11T05:23:36;33.33;;;15.13;;
77573;SDS011;66710;48.868;9.080;2024-01-11T05:26:02;38.83;;;15.87;;
77573;SDS011;66710;48.868;9.080;2024-01-11T05:28:27;36.00;;;14.60;;
77573;SDS011;66710;48.868;9.080;2024-01-11T05:30:53;34.97;;;15.23;;
77573;SDS011;66710;48.868;9.080;2024-01-11T05:33:18;37.00;;;15.83;;
77573;SDS011;66710;48.868;9.080;2024-01-11T05:35:43;38.20;;;16.50;;
77573;SDS011;66710;48.868;9.080;2024-01-11T05:38:08;39.47;;;16.00;;
77573;SDS011;66710;48.868;9.080;2024-01-11T05:40:34;35.27;;;15.50;;
77573;SDS011;66710;48.868;9.080;2024-01-11T05:42:59;33.97;;;15.23;;
77573;SDS011;66710;48.868;9.080;2024-01-11T05:45:24;42.70;;;16.10;;
77573;SDS011;66710;48.868;9.080;2024-01-11T05:47:49;39.93;;;17.10;;
77573;SDS011;66710;48.868;9.080;2024-01-11T05:50:15;40.90;;;18.07;;
77573;SDS011;66710;48.868;9.080;2024-01-11T05:52:40;41.13;;;16.07;;
77573;SDS011;66710;48.868;9.080;2024-01-11T05:55:05;40.10;;;15.53;;
77573;SDS011;66710;48.868;9.080;2024-01-11T05:57:31;37.33;;;15.60;;
77573;SDS011;66710;48.868;9.080;2024-01-11T05:59:56;41.97;;;18.30;;
77573;SDS011;66710;48.868;9.080;2024-01-11T06:02:21;37.07;;;16.70;;
77573;SDS011;66710;48.868;9.080;2024-01-11T06:04:47;44.37;;;16.70;;
77573;SDS011;66710;48.868;9.080;2024-01-11T06:07:14;46.07;;;18.10;;
77573;SDS011;66710;48.868;9.080;2024-01-11T06:09:39;41.77;;;18.33;;
77573;SDS011;66710;48.868;9.080;2024-01-11T06:12:05;42.63;;;17.93;;
77573;SDS011;66710;48.868;9.080;2024-01-11T06:14:30;41.87;;;17.10;;
77573;SDS011;66710;48.868;9.080;2024-01-11T06:16:55;43.80;;;17.73;;
77573;SDS011;66710;48.868;9.080;2024-01-11T06:19:21;44.00;;;18.10;;
77573;SDS011;66710;48.868;9.080;2024-01-11T06:21:46;17.43;;;9.73;;
77573;SDS011;66710;48.868;9.080;2024-01-11T06:24:12;30.53;;;12.33;;
77573;SDS011;66710;48.868;9.080;2024-01-11T06:26:37;49.80;;;19.73;;
77573;SDS011;66710;48.868;9.080;2024-01-11T06:29:02;37.63;;;15.30;;
77573;SDS011;66710;48.868;9.080;2024-01-11T06:31:27;42.47;;;17.40;;
77573;SDS011;66710;48.868;9.080;2024-01-11T06:33:53;37.17;;;15.23;;
77573;SDS011;66710;48.868;9.080;2024-01-11T06:36:18;32.80;;;16.07;;
77573;SDS011;66710;48.868;9.080;2024-01-11T06:38:43;30.93;;;13.23;;
77573;SDS011;66710;48.868;9.080;2024-01-11T06:41:08;45.90;;;19.07;;
77573;SDS011;66710;48.868;9.080;2024-01-11T06:43:34;46.83;;;15.63;;
77573;SDS011;66710;48.868;9.080;2024-01-11T06:46:03;32.97;;;13.37;;
77573;SDS011;66710;48.868;9.080;2024-01-11T06:48:29;21.80;;;10.97;;
77573;SDS011;66710;48.868;9.080;2024-01-11T06:50:54;31.17;;;14.07;;
77573;SDS011;66710;48.868;9.080;2024-01-11T06:53:20;36.60;;;13.33;;
77573;SDS011;66710;48.868;9.080;2024-01-11T06:55:45;30.90;;;13.73;;
77573;SDS011;66710;48.868;9.080;2024-01-11T06:58:12;33.20;;;16.13;;
77573;SDS011;66710;48.868;9.080;2024-01-11T07:00:38;39.43;;;15.40;;
77573;SDS011;66710;48.868;9.080;2024-01-11T07:03:07;34.93;;;14.67;;
77573;SDS011;66710;48.868;9.080;2024-01-11T07:05:33;39.30;;;15.80;;
77573;SDS011;66710;48.868;9.080;2024-01-11T07:07:58;81.90;;;28.27;;
77573;SDS011;66710;48.868;9.080;2024-01-11T07:10:24;63.93;;;23.00;;
77573;SDS011;66710;48.868;9.080;2024-01-11T07:12:49;41.47;;;17.27;;
77573;SDS011;66710;48.868;9.080;2024-01-11T07:15:14;38.73;;;16.10;;
77573;SDS011;66710;48.868;9.080;2024-01-11T07:17:39;33.90;;;14.90;;
77573;SDS011;66710;48.868;9.080;2024-01-11T07:20:05;36.67;;;15.63;;
77573;SDS011;66710;48.868;9.080;2024-01-11T07:22:31;45.73;;;17.90;;
77573;SDS011;66710;48.868;9.080;2024-01-11T07:24:56;41.50;;;17.13;;
77573;SDS011;66710;48.868;9.080;2024-01-11T07:27:21;41.17;;;18.43;;
77573;SDS011;66710;48.868;9.080;2024-01-11T07:29:47;44.50;;;18.47;;
77573;SDS011;66710;48.868;9.080;2024-01-11T07:32:12;55.20;;;22.13;;
77573;SDS011;66710;48.868;9.080;2024-01-11T07:34:37;59.60;;;22.30;;
77573;SDS011;66710;48.868;9.080;2024-01-11T07:37:02;61.40;;;21.07;;
77573;SDS011;66710;48.868;9.080;2024-01-11T07:39:28;55.90;;;22.90;;
77573;SDS011;66710;48.868;9.080;2024-01-11T07:41:55;56.27;;;21.87;;
77573;SDS011;66710;48.868;9.080;2024-01-11T07:44:21;31.97;;;15.37;;
77573;SDS011;66710;48.868;9.080;2024-01-11T07:46:46;35.50;;;16.40;;
77573;SDS011;66710;48.868;9.080;2024-01-11T07:49:19;55.70;;;23.47;;
77573;SDS011;66710;48.868;9.080;2024-01-11T07:51:44;57.07;;;23.63;;
77573;SDS011;66710;48.868;9.080;2024-01-11T07:54:09;51.33;;;22.60;;
77573;SDS011;66710;48.868;9.080;2024-01-11T07:56:34;60.13;;;25.40;;
77573;SDS011;66710;48.868;9.080;2024-01-11T07:59:00;68.93;;;26.63;;
77573;SDS011;66710;48.868;9.080;2024-01-11T08:01:25;52.63;;;23.00;;
77573;SDS011;66710;48.868;9.080;2024-01-11T08:03:50;54.73;;;21.53;;
77573;SDS011;66710;48.868;9.080;2024-01-11T08:06:17;50.07;;;22.00;;
77573;SDS011;66710;48.868;9.080;2024-01-11T08:08:42;50.07;;;21.87;;
77573;SDS011;66710;48.868;9.080;2024-01-11T08:11:07;52.83;;;22.23;;
77573;SDS011;66710;48.868;9.080;2024-01-11T08:13:33;45.80;;;20.13;;
77573;SDS011;66710;48.868;9.080;2024-01-11T08:16:00;53.13;;;22.40;;
77573;SDS011;66710;48.868;9.080;2024-01-11T08:18:28;60.87;;;21.90;;
77573;SDS011;66710;48.868;9.080;2024-01-11T08:20:56;60.97;;;24.53;;
77573;SDS011;66710;48.868;9.080;2024-01-11T08:23:21;66.23;;;23.87;;
77573;SDS011;66710;48.868;9.080;2024-01-11T08:25:46;66.23;;;27.40;;
77573;SDS011;66710;48.868;9.080;2024-01-11T08:28:12;62.67;;;21.17;;
77573;SDS011;66710;48.868;9.080;2024-01-11T08:30:37;50.33;;;19.80;;
77573;SDS011;66710;48.868;9.080;2024-01-11T08:33:02;47.90;;;20.53;;
77573;SDS011;66710;48.868;9.080;2024-01-11T08:35:28;48.70;;;19.77;;
77573;SDS011;66710;48.868;9.080;2024-01-11T08:37:54;43.10;;;19.40;;
77573;SDS011;66710;48.868;9.080;2024-01-11T08:40:19;42.83;;;19.77;;
77573;SDS011;66710;48.868;9.080;2024-01-11T08:42:45;41.90;;;15.27;;
77573;SDS011;66710;48.868;9.080;2024-01-11T08:45:11;33.60;;;16.70;;
77573;SDS011;66710;48.868;9.080;2024-01-11T08:50:07;39.53;;;19.07;;
77573;SDS011;66710;48.868;9.080;2024-01-11T08:52:36;38.83;;;18.00;;
77573;SDS011;66710;48.868;9.080;2024-01-11T08:55:04;14.43;;;7.37;;
77573;SDS011;66710;48.868;9.080;2024-01-11T08:57:30;30.97;;;13.57;;
77573;SDS011;66710;48.868;9.080;2024-01-11T08:59:55;41.77;;;16.27;;
77573;SDS011;66710;48.868;9.080;2024-01-11T09:02:20;36.90;;;15.27;;
77573;SDS011;66710;48.868;9.080;2024-01-11T09:04:46;37.53;;;16.33;;
77573;SDS011;66710;48.868;9.080;2024-01-11T09:07:12;34.80;;;16.93;;
77573;SDS011;66710;48.868;9.080;2024-01-11T09:09:37;34.73;;;15.57;;
77573;SDS011;66710;48.868;9.080;2024-01-11T09:12:03;33.80;;;15.30;;
77573;SDS011;66710;48.868;9.080;2024-01-11T09:14:28;30.03;;;14.07;;
77573;SDS011;66710;48.868;9.080;2024-01-11T09:16:54;34.30;;;15.83;;
77573;SDS011;66710;48.868;9.080;2024-01-11T09:19:20;38.93;;;16.87;;
77573;SDS011;66710;48.868;9.080;2024-01-11T09:21:45;38.53;;;17.03;;
77573;SDS011;66710;48.868;9.080;2024-01-11T09:24:10;42.60;;;19.23;;
77573;SDS011;66710;48.868;9.080;2024-01-11T09:26:35;44.93;;;19.97;;
77573;SDS011;66710;48.868;9.080;2024-01-11T09:29:01;41.07;;;19.00;;
77573;SDS011;66710;48.868;9.080;2024-01-11T09:31:27;39.67;;;18.00;;
77573;SDS011;66710;48.868;9.080;2024-01-11T09:33:52;38.27;;;17.17;;
77573;SDS011;66710;48.868;9.080;2024-01-11T09:36:18;44.77;;;19.20;;
77573;SDS011;66710;48.868;9.080;2024-01-11T09:38:44;35.73;;;17.07;;
77573;SDS011;66710;48.868;9.080;2024-01-11T09:41:12;35.03;;;16.67;;
77573;SDS011;66710;48.868;9.080;2024-01-11T09:43:38;37.73;;;16.90;;
77573;SDS011;66710;48.868;9.080;2024-01-11T09:46:05;31.30;;;14.77;;
77573;SDS011;66710;48.868;9.080;2024-01-11T09:48:34;39.77;;;17.47;;
77573;SDS011;66710;48.868;9.080;2024-01-11T09:51:02;39.42;;;17.80;;
77573;SDS011;66710;48.868;9.080;2024-01-11T09:53:32;32.60;;;16.27;;
77573;SDS011;66710;48.868;9.080;2024-01-11T09:55:58;36.97;;;17.17;;
77573;SDS011;66710;48.868;9.080;2024-01-11T09:58:24;34.65;;;16.50;;
77573;SDS011;66710;48.868;9.080;2024-01-11T10:00:54;39.22;;;19.20;;
77573;SDS011;66710;48.868;9.080;2024-01-11T10:03:20;37.83;;;16.13;;
77573;SDS011;66710;48.868;9.080;2024-01-11T10:05:47;35.92;;;17.98;;
77573;SDS011;66710;48.868;9.080;2024-01-11T10:08:16;38.95;;;15.40;;
77573;SDS011;66710;48.868;9.080;2024-01-11T10:10:44;25.50;;;11.57;;
77573;SDS011;66710;48.868;9.080;2024-01-11T10:13:09;40.23;;;16.93;;
77573;SDS011;66710;48.868;9.080;2024-01-11T10:15:35;28.50;;;13.80;;
77573;SDS011;66710;48.868;9.080;2024-01-11T10:18:01;38.63;;;16.58;;
77573;SDS011;66710;48.868;9.080;2024-01-11T10:20:26;37.22;;;16.83;;
77573;SDS011;66710;48.868;9.080;2024-01-11T10:22:55;37.92;;;16.40;;
77573;SDS011;66710;48.868;9.080;2024-01-11T10:25:21;37.53;;;17.00;;
77573;SDS011;66710;48.868;9.080;2024-01-11T10:27:48;38.43;;;17.30;;
77573;SDS011;66710;48.868;9.080;2024-01-11T10:30:13;39.00;;;17.13;;
77573;SDS011;66710;48.868;9.080;2024-01-11T10:32:44;36.55;;;18.15;;
77573;SDS011;66710;48.868;9.080;2024-01-11T10:35:10;28.02;;;13.20;;
77573;SDS011;66710;48.868;9.080;2024-01-11T10:37:36;32.90;;;15.05;;
77573;SDS011;66710;48.868;9.080;2024-01-11T10:40:04;33.70;;;16.35;;
77573;SDS011;66710;48.868;9.080;2024-01-11T10:42:36;37.90;;;16.67;;
77573;SDS011;66710;48.868;9.080;2024-01-11T10:45:07;38.67;;;18.38;;
77573;SDS011;66710;48.868;9.080;2024-01-11T10:47:51;41.70;;;19.00;;
77573;SDS011;66710;48.868;9.080;2024-01-11T10:50:19;36.08;;;17.42;;
77573;SDS011;66710;48.868;9.080;2024-01-11T10:52:51;37.90;;;18.17;;
77573;SDS011;66710;48.868;9.080;2024-01-11T10:55:25;44.42;;;18.73;;
77573;SDS011;66710;48.868;9.080;2024-01-11T10:57:51;40.88;;;19.40;;
77573;SDS011;66710;48.868;9.080;2024-01-11T11:00:19;38.78;;;18.05;;
77573;SDS011;66710;48.868;9.080;2024-01-11T11:02:44;37.33;;;17.88;;
77573;SDS011;66710;48.868;9.080;2024-01-11T11:05:11;39.85;;;19.15;;
77573;SDS011;66710;48.868;9.080;2024-01-11T11:07:38;40.25;;;19.92;;
77573;SDS011;66710;48.868;9.080;2024-01-11T11:10:04;42.55;;;22.70;;
77573;SDS011;66710;48.868;9.080;2024-01-11T11:12:32;41.47;;;19.63;;
77573;SDS011;66710;48.868;9.080;2024-01-11T11:14:58;36.92;;;18.50;;
77573;SDS011;66710;48.868;9.080;2024-01-11T11:17:24;37.97;;;18.88;;
77573;SDS011;66710;48.868;9.080;2024-01-11T11:19:50;41.30;;;19.90;;
77573;SDS011;66710;48.868;9.080;2024-01-11T11:22:17;38.05;;;20.05;;
77573;SDS011;66710;48.868;9.080;2024-01-11T11:24:44;38.67;;;19.15;;
77573;SDS011;66710;48.868;9.080;2024-01-11T11:27:12;42.67;;;19.15;;
77573;SDS011;66710;48.868;9.080;2024-01-11T11:29:38;38.72;;;20.38;;
77573;SDS011;66710;48.868;9.080;2024-01-11T11:32:04;37.15;;;19.48;;
77573;SDS011;66710;48.868;9.080;2024-01-11T11:37:09;41.47;;;20.38;;
77573;SDS011;66710;48.868;9.080;2024-01-11T11:39:35;43.20;;;19.55;;
77573;SDS011;66710;48.868;9.080;2024-01-11T11:42:00;40.50;;;19.85;;
77573;SDS011;66710;48.868;9.080;2024-01-11T11:44:26;38.78;;;19.75;;
77573;SDS011;66710;48.868;9.080;2024-01-11T11:46:51;42.03;;;20.38;;
77573;SDS011;66710;48.868;9.080;2024-01-11T11:49:17;40.30;;;17.65;;
77573;SDS011;66710;48.868;9.080;2024-01-11T11:51:43;39.90;;;20.85;;
77573;SDS011;66710;48.868;9.080;2024-01-11T11:54:08;38.22;;;19.88;;
77573;SDS011;66710;48.868;9.080;2024-01-11T11:56:39;43.90;;;20.27;;
77573;SDS011;66710;48.868;9.080;2024-01-11T11:59:05;41.85;;;21.25;;
77573;SDS011;66710;48.868;9.080;2024-01-11T12:01:31;47.78;;;24.15;;
77573;SDS011;66710;48.868;9.080;2024-01-11T12:03:58;43.03;;;20.25;;
77573;SDS011;66710;48.868;9.080;2024-01-11T12:06:23;39.50;;;19.23;;
77573;SDS011;66710;48.868;9.080;2024-01-11T12:08:49;36.65;;;17.63;;
77573;SDS011;66710;48.868;9.080;2024-01-11T12:11:18;39.45;;;19.40;;
77573;SDS011;66710;48.868;9.080;2024-01-11T12:13:46;42.47;;;20.73;;
77573;SDS011;66710;48.868;9.080;2024-01-11T12:16:12;37.80;;;19.80;;
77573;SDS011;66710;48.868;9.080;2024-01-11T12:18:38;41.60;;;20.90;;
77573;SDS011;66710;48.868;9.080;2024-01-11T12:21:03;39.97;;;19.08;;
77573;SDS011;66710;48.868;9.080;2024-01-11T12:23:29;39.53;;;19.48;;
77573;SDS011;66710;48.868;9.080;2024-01-11T12:25:58;38.15;;;18.70;;
77573;SDS011;66710;48.868;9.080;2024-01-11T12:28:23;43.75;;;20.48;;
77573;SDS011;66710;48.868;9.080;2024-01-11T12:30:49;36.42;;;18.90;;
77573;SDS011;66710;48.868;9.080;2024-01-11T12:33:15;35.42;;;20.05;;
77573;SDS011;66710;48.868;9.080;2024-01-11T12:35:41;37.15;;;18.70;;
77573;SDS011;66710;48.868;9.080;2024-01-11T12:38:06;37.60;;;19.73;;
77573;SDS011;66710;48.868;9.080;2024-01-11T12:40:32;42.22;;;20.38;;
77573;SDS011;66710;48.868;9.080;2024-01-11T12:42:59;35.60;;;18.98;;
77573;SDS011;66710;48.868;9.080;2024-01-11T12:45:25;40.35;;;19.30;;
77573;SDS011;66710;48.868;9.080;2024-01-11T12:47:54;38.20;;;20.25;;
77573;SDS011;66710;48.868;9.080;2024-01-11T12:50:22;41.83;;;20.63;;
77573;SDS011;66710;48.868;9.080;2024-01-11T12:53:03;39.85;;;19.63;;
77573;SDS011;66710;48.868;9.080;2024-01-11T12:55:32;35.70;;;18.35;;
77573;SDS011;66710;48.868;9.080;2024-01-11T12:58:06;42.30;;;20.90;;
77573;SDS011;66710;48.868;9.080;2024-01-11T13:00:33;41.00;;;20.70;;
77573;SDS011;66710;48.868;9.080;2024-01-11T13:02:58;43.45;;;20.77;;
77573;SDS011;66710;48.868;9.080;2024-01-11T13:05:24;41.55;;;20.95;;
77573;SDS011;66710;48.868;9.080;2024-01-11T13:07:50;39.55;;;20.25;;
77573;SDS011;66710;48.868;9.080;2024-01-11T13:10:15;37.10;;;18.40;;
77573;SDS011;66710;48.868;9.080;2024-01-11T13:12:42;38.22;;;18.77;;
77573;SDS011;66710;48.868;9.080;2024-01-11T13:15:07;40.90;;;20.75;;
77573;SDS011;66710;48.868;9.080;2024-01-11T13:17:32;39.65;;;20.90;;
77573;SDS011;66710;48.868;9.080;2024-01-11T13:19:58;40.08;;;21.08;;
77573;SDS011;66710;48.868;9.080;2024-01-11T13:22:24;43.10;;;21.55;;
77573;SDS011;66710;48.868;9.080;2024-01-11T13:24:49;46.20;;;20.48;;
77573;SDS011;66710;48.868;9.080;2024-01-11T13:27:15;43.20;;;20.48;;
77573;SDS011;66710;48.868;9.080;2024-01-11T13:29:40;40.28;;;18.88;;
77573;SDS011;66710;48.868;9.080;2024-01-11T13:32:05;39.80;;;21.52;;
77573;SDS011;66710;48.868;9.080;2024-01-11T13:34:31;46.35;;;23.92;;
77573;SDS011;66710;48.868;9.080;2024-01-11T13:36:56;42.08;;;21.27;;
77573;SDS011;66710;48.868;9.080;2024-01-11T13:39:24;41.78;;;20.80;;
77573;SDS011;66710;48.868;9.080;2024-01-11T13:41:50;41.97;;;19.67;;
77573;SDS011;66710;48.868;9.080;2024-01-11T13:44:15;41.45;;;20.80;;
77573;SDS011;66710;48.868;9.080;2024-01-11T13:46:41;43.28;;;20.98;;
77573;SDS011;66710;48.868;9.080;2024-01-11T13:49:06;42.17;;;20.98;;
77573;SDS011;66710;48.868;9.080;2024-01-11T13:51:31;38.13;;;20.02;;
77573;SDS011;66710;48.868;9.080;2024-01-11T13:53:57;39.17;;;18.80;;
77573;SDS011;66710;48.868;9.080;2024-01-11T13:56:24;41.13;;;19.30;;
77573;SDS011;66710;48.868;9.080;2024-01-11T13:58:49;40.75;;;20.73;;
77573;SDS011;66710;48.868;9.080;2024-01-11T14:01:15;39.75;;;20.52;;
77573;SDS011;66710;48.868;9.080;2024-01-11T14:03:40;43.15;;;21.98;;
77573;SDS011;66710;48.868;9.080;2024-01-11T14:06:05;42.28;;;22.27;;
77573;SDS011;66710;48.868;9.080;2024-01-11T14:08:31;64.80;;;26.67;;
77573;SDS011;66710;48.868;9.080;2024-01-11T14:10:56;40.58;;;21.05;;
77573;SDS011;66710;48.868;9.080;2024-01-11T14:13:22;42.72;;;18.92;;
77573;SDS011;66710;48.868;9.080;2024-01-11T14:15:47;38.72;;;20.13;;
77573;SDS011;66710;48.868;9.080;2024-01-11T14:18:13;42.97;;;21.63;;